Time,TemperatureF,DewpointF,PressureIn,WindDirection,WindDirectionDegrees,WindSpeedMPH,WindSpeedGustMPH,Humidity,HourlyPrecipIn,Conditions,Clouds,dailyrainin,SoftwareType,DateUTC
2013-03-18 00:03:00,51.6,5.5,29.70,WSW,247,4.3,-999.0,15,-99.99,,,0.00,Acu-Link.com,2013-03-18 06:03:00,
2013-03-18 00:19:00,53.1,5.2,29.70,NW,315,5.8,-999.0,14,-99.99,,,0.00,Acu-Link.com,2013-03-18 06:19:00,
2013-03-18 00:34:00,54.0,5.9,29.70,WNW,292,6.3,-999.0,14,-99.99,,,0.00,Acu-Link.com,2013-03-18 06:34:00,
2013-03-18 00:49:00,53.6,7.1,29.71,WNW,292,11.0,-999.0,15,-99.99,,,0.00,Acu-Link.com,2013-03-18 06:49:00,
2013-03-18 01:04:00,53.6,9.9,29.71,WNW,292,6.7,-999.0,17,-99.99,,,0.00,Acu-Link.com,2013-03-18 07:04:00,
2013-03-18 01:20:00,52.7,9.1,29.72,West,270,4.3,-999.0,17,-99.99,,,0.00,Acu-Link.com,2013-03-18 07:20:00,
2013-03-18 01:35:00,49.5,6.5,29.73,West,270,8.9,-999.0,17,-99.99,,,0.00,Acu-Link.com,2013-03-18 07:35:00,
2013-03-18 01:50:00,50.2,8.3,29.74,West,270,7.4,-999.0,18,-99.99,,,0.00,Acu-Link.com,2013-03-18 07:50:00,
2013-03-18 02:05:00,50.9,10.1,29.74,West,270,7.8,-999.0,19,-99.99,,,0.00,Acu-Link.com,2013-03-18 08:05:00,
2013-03-18 02:20:00,50.0,10.5,29.74,NW,315,5.1,-999.0,20,-99.99,,,0.00,Acu-Link.com,2013-03-18 08:20:00,
2013-03-18 02:35:00,49.8,11.5,29.76,SSW,202,3.1,-999.0,21,-99.99,,,0.00,Acu-Link.com,2013-03-18 08:35:00,
2013-03-18 02:50:00,48.6,10.4,29.76,NW,315,2.7,-999.0,21,-99.99,,,0.00,Acu-Link.com,2013-03-18 08:50:00,
2013-03-18 03:36:00,44.4,10.8,29.75,WNW,292,0.0,-999.0,25,-99.99,,,0.00,Acu-Link.com,2013-03-18 09:36:00,
2013-03-18 03:51:00,45.1,11.4,29.75,SSE,157,3.1,-999.0,25,-99.99,,,0.00,Acu-Link.com,2013-03-18 09:51:00,
2013-03-18 04:07:00,43.2,11.5,29.76,SE,135,2.2,-999.0,27,-99.99,,,0.00,Acu-Link.com,2013-03-18 10:07:00,
2013-03-18 04:22:00,44.1,11.4,29.76,SW,225,2.7,-999.0,26,-99.99,,,0.00,Acu-Link.com,2013-03-18 10:22:00,
2013-03-18 04:37:00,43.3,10.8,29.75,SW,225,2.7,-999.0,26,-99.99,,,0.00,Acu-Link.com,2013-03-18 10:37:00,
2013-03-18 04:52:00,41.9,10.4,29.75,West,270,4.3,-999.0,27,-99.99,,,0.00,Acu-Link.com,2013-03-18 10:52:00,
2013-03-18 05:07:00,41.4,9.9,29.75,West,270,3.8,-999.0,27,-99.99,,,0.00,Acu-Link.com,2013-03-18 11:07:00,
2013-03-18 05:23:00,41.0,10.4,29.76,WSW,247,1.1,-999.0,28,-99.99,,,0.00,Acu-Link.com,2013-03-18 11:23:00,
2013-03-18 05:38:00,39.7,10.1,29.76,South,180,2.2,-999.0,29,-99.99,,,0.00,Acu-Link.com,2013-03-18 11:38:00,
2013-03-18 05:53:00,38.7,8.4,29.75,South,180,0.0,-999.0,28,-99.99,,,0.00,Acu-Link.com,2013-03-18 11:53:00,
2013-03-18 06:08:00,36.9,8.4,29.75,West,270,0.0,-999.0,30,-99.99,,,0.00,Acu-Link.com,2013-03-18 12:08:00,
2013-03-18 06:24:00,36.5,8.8,29.76,WSW,247,2.2,-999.0,31,-99.99,,,0.00,Acu-Link.com,2013-03-18 12:24:00,
2013-03-18 06:39:00,37.2,8.7,29.77,SSW,202,1.6,-999.0,30,-99.99,,,0.00,Acu-Link.com,2013-03-18 12:39:00,
2013-03-18 06:54:00,36.0,8.3,29.78,West,270,0.0,-999.0,31,-99.99,,,0.00,Acu-Link.com,2013-03-18 12:54:00,
2013-03-18 07:09:00,35.1,8.9,29.79,West,270,2.2,-999.0,33,-99.99,,,0.00,Acu-Link.com,2013-03-18 13:09:00,
2013-03-18 07:25:00,35.4,7.8,29.81,SW,225,0.0,-999.0,31,-99.99,,,0.00,Acu-Link.com,2013-03-18 13:25:00,
2013-03-18 07:40:00,37.8,8.4,29.81,West,270,2.7,-999.0,29,-99.99,,,0.00,Acu-Link.com,2013-03-18 13:40:00,
2013-03-18 07:55:00,40.3,9.0,29.82,ESE,112,0.0,-999.0,27,-99.99,,,0.00,Acu-Link.com,2013-03-18 13:55:00,
2013-03-18 08:10:00,44.1,8.7,29.83,SSE,157,0.0,-999.0,23,-99.99,,,0.00,Acu-Link.com,2013-03-18 14:10:00,
2013-03-18 08:26:00,45.5,8.9,29.82,SSW,202,0.0,-999.0,22,-99.99,,,0.00,Acu-Link.com,2013-03-18 14:26:00,
2013-03-18 08:41:00,48.0,8.9,29.83,SSE,157,2.7,-999.0,20,-99.99,,,0.00,Acu-Link.com,2013-03-18 14:41:00,
2013-03-18 09:11:00,50.2,9.5,29.84,ESE,112,2.7,-999.0,19,-99.99,,,0.00,Acu-Link.com,2013-03-18 15:11:00,
2013-03-18 09:26:00,50.9,10.1,29.85,East,90,4.3,-999.0,19,-99.99,,,0.00,Acu-Link.com,2013-03-18 15:26:00,
2013-03-18 09:42:00,51.3,9.2,29.84,SSE,157,3.1,-999.0,18,-99.99,,,0.00,Acu-Link.com,2013-03-18 15:42:00,
2013-03-18 09:57:00,53.4,11.0,29.85,SSE,157,4.7,-999.0,18,-99.99,,,0.00,Acu-Link.com,2013-03-18 15:57:00,
2013-03-18 10:12:00,55.0,12.3,29.84,ESE,112,2.2,-999.0,18,-99.99,,,0.00,Acu-Link.com,2013-03-18 16:12:00,
2013-03-18 10:27:00,55.9,11.8,29.84,WSW,247,0.0,-999.0,17,-99.99,,,0.00,Acu-Link.com,2013-03-18 16:27:00,
2013-03-18 10:42:00,55.9,13.1,29.84,West,270,1.1,-999.0,18,-99.99,,,0.00,Acu-Link.com,2013-03-18 16:42:00,
2013-03-18 10:58:00,57.0,11.3,29.84,NE,45,1.6,-999.0,16,-99.99,,,0.00,Acu-Link.com,2013-03-18 16:58:00,
2013-03-18 11:13:00,59.4,13.2,29.84,NE,45,2.7,-999.0,16,-99.99,,,0.00,Acu-Link.com,2013-03-18 17:13:00,
2013-03-18 11:28:00,60.8,12.9,29.83,East,90,2.2,-999.0,15,-99.99,,,0.00,Acu-Link.com,2013-03-18 17:28:00,
2013-03-18 11:43:00,63.0,14.6,29.84,North,0,2.7,-999.0,15,-99.99,,,0.00,Acu-Link.com,2013-03-18 17:43:00,
2013-03-18 11:59:00,64.9,12.9,29.83,ESE,112,2.2,-999.0,13,-99.99,,,0.00,Acu-Link.com,2013-03-18 17:59:00,
2013-03-18 12:14:00,63.9,12.1,29.82,East,90,2.2,-999.0,13,-99.99,,,0.00,Acu-Link.com,2013-03-18 18:14:00,
2013-03-18 12:29:00,64.6,12.6,29.82,ENE,67,3.8,-999.0,13,-99.99,,,0.00,Acu-Link.com,2013-03-18 18:29:00,
2013-03-18 12:44:00,66.4,14.1,29.81,ESE,112,8.3,-999.0,13,-99.99,,,0.00,Acu-Link.com,2013-03-18 18:44:00,
2013-03-18 12:59:00,65.5,13.4,29.81,ESE,112,2.2,-999.0,13,-99.99,,,0.00,Acu-Link.com,2013-03-18 18:59:00,
2013-03-18 13:15:00,68.0,13.5,29.79,East,90,8.9,-999.0,12,-99.99,,,0.00,Acu-Link.com,2013-03-18 19:15:00,
2013-03-18 13:30:00,67.8,13.4,29.79,NE,45,7.8,-999.0,12,-99.99,,,0.00,Acu-Link.com,2013-03-18 19:30:00,
2013-03-18 13:45:00,68.5,12.0,29.78,WSW,247,1.6,-999.0,11,-99.99,,,0.00,Acu-Link.com,2013-03-18 19:45:00,
2013-03-18 14:16:00,70.9,9.3,29.75,NW,315,4.7,-999.0,9,-99.99,,,0.00,Acu-Link.com,2013-03-18 20:16:00,
2013-03-18 14:31:00,71.2,9.5,29.75,NNW,337,8.3,-999.0,9,-99.99,,,0.00,Acu-Link.com,2013-03-18 20:31:00,
2013-03-18 14:46:00,71.6,9.8,29.75,East,90,9.8,-999.0,9,-99.99,,,0.00,Acu-Link.com,2013-03-18 20:46:00,
2013-03-18 15:02:00,70.9,9.3,29.75,West,270,4.3,-999.0,9,-99.99,,,0.00,Acu-Link.com,2013-03-18 21:02:00,
2013-03-18 15:17:00,71.1,11.8,29.74,NNW,337,13.0,-999.0,10,-99.99,,,0.00,Acu-Link.com,2013-03-18 21:17:00,
2013-03-18 15:32:00,71.1,11.8,29.74,WSW,247,12.5,-999.0,10,-99.99,,,0.00,Acu-Link.com,2013-03-18 21:32:00,
2013-03-18 15:47:00,71.1,11.8,29.74,WNW,292,5.1,-999.0,10,-99.99,,,0.00,Acu-Link.com,2013-03-18 21:47:00,
2013-03-18 16:02:00,71.6,12.2,29.74,NNW,337,5.1,-999.0,10,-99.99,,,0.00,Acu-Link.com,2013-03-18 22:02:00,
2013-03-18 16:18:00,71.4,12.0,29.73,WNW,292,8.9,-999.0,10,-99.99,,,0.00,Acu-Link.com,2013-03-18 22:18:00,
2013-03-18 16:33:00,70.9,11.6,29.73,WSW,247,6.3,-999.0,10,-99.99,,,0.00,Acu-Link.com,2013-03-18 22:33:00,
2013-03-18 16:48:00,70.7,11.5,29.74,WNW,292,11.9,-999.0,10,-99.99,,,0.00,Acu-Link.com,2013-03-18 22:48:00,
2013-03-18 17:03:00,70.3,11.2,29.74,WNW,292,16.1,-999.0,10,-99.99,,,0.00,Acu-Link.com,2013-03-18 23:03:00,
2013-03-18 17:19:00,69.4,10.5,29.75,North,0,8.9,-999.0,10,-99.99,,,0.00,Acu-Link.com,2013-03-18 23:19:00,
2013-03-18 17:34:00,68.9,10.1,29.75,NNW,337,7.4,-999.0,10,-99.99,,,0.00,Acu-Link.com,2013-03-18 23:34:00,
2013-03-18 17:49:00,68.0,11.6,29.75,NW,315,13.0,-999.0,11,-99.99,,,0.00,Acu-Link.com,2013-03-18 23:49:00,
2013-03-18 18:04:00,67.8,11.4,29.75,North,0,11.9,-999.0,11,-99.99,,,0.00,Acu-Link.com,2013-03-19 00:04:00,
2013-03-18 18:19:00,66.2,12.1,29.76,West,270,7.4,-999.0,12,-99.99,,,0.00,Acu-Link.com,2013-03-19 00:19:00,
2013-03-18 18:35:00,66.0,12.0,29.77,NW,315,7.4,-999.0,12,-99.99,,,0.00,Acu-Link.com,2013-03-19 00:35:00,
2013-03-18 18:50:00,64.2,10.6,29.77,NW,315,7.8,-999.0,12,-99.99,,,0.00,Acu-Link.com,2013-03-19 00:50:00,
2013-03-18 19:05:00,62.6,11.1,29.77,NNW,337,6.7,-999.0,13,-99.99,,,0.00,Acu-Link.com,2013-03-19 01:05:00,
2013-03-18 19:20:00,61.2,10.0,29.77,NW,315,8.3,-999.0,13,-99.99,,,0.00,Acu-Link.com,2013-03-19 01:20:00,
2013-03-18 19:35:00,60.1,10.8,29.78,NNW,337,4.7,-999.0,14,-99.99,,,0.00,Acu-Link.com,2013-03-19 01:35:00,
2013-03-18 19:51:00,59.0,9.9,29.79,NNW,337,4.7,-999.0,14,-99.99,,,0.00,Acu-Link.com,2013-03-19 01:51:00,
2013-03-18 20:21:00,56.8,9.7,29.81,NE,45,3.8,-999.0,15,-99.99,,,0.00,Acu-Link.com,2013-03-19 02:21:00,
2013-03-18 20:36:00,55.9,9.0,29.81,WNW,292,2.2,-999.0,15,-99.99,,,0.00,Acu-Link.com,2013-03-19 02:36:00,
2013-03-18 20:51:00,54.1,9.0,29.82,ESE,112,1.6,-999.0,16,-99.99,,,0.00,Acu-Link.com,2013-03-19 02:51:00,
2013-03-18 21:07:00,53.2,9.6,29.82,West,270,1.6,-999.0,17,-99.99,,,0.00,Acu-Link.com,2013-03-19 03:07:00,
2013-03-18 21:22:00,51.6,11.9,29.83,WNW,292,2.2,-999.0,20,-99.99,,,0.00,Acu-Link.com,2013-03-19 03:22:00,
2013-03-18 21:37:00,50.9,8.9,29.83,NNW,337,2.7,-999.0,18,-99.99,,,0.00,Acu-Link.com,2013-03-19 03:37:00,
2013-03-18 21:52:00,50.4,8.5,29.83,WNW,292,2.2,-999.0,18,-99.99,,,0.00,Acu-Link.com,2013-03-19 03:52:00,
2013-03-18 22:08:00,49.6,7.9,29.84,West,270,2.7,-999.0,18,-99.99,,,0.00,Acu-Link.com,2013-03-19 04:08:00,
2013-03-18 22:23:00,48.6,8.2,29.84,West,270,0.0,-999.0,19,-99.99,,,0.00,Acu-Link.com,2013-03-19 04:23:00,
2013-03-18 22:38:00,47.8,7.6,29.84,NW,315,0.0,-999.0,19,-99.99,,,0.00,Acu-Link.com,2013-03-19 04:38:00,
2013-03-18 22:53:00,46.9,8.0,29.85,North,0,0.0,-999.0,20,-99.99,,,0.00,Acu-Link.com,2013-03-19 04:53:00,
2013-03-18 23:08:00,46.2,8.5,29.85,WNW,292,0.0,-999.0,21,-99.99,,,0.00,Acu-Link.com,2013-03-19 05:08:00,
2013-03-18 23:24:00,46.0,9.4,29.84,West,270,0.0,-999.0,22,-99.99,,,0.00,Acu-Link.com,2013-03-19 05:24:00,
2013-03-18 23:39:00,46.0,8.3,29.85,West,270,0.0,-999.0,21,-99.99,,,0.00,Acu-Link.com,2013-03-19 05:39:00,
2013-03-18 23:54:00,46.8,8.9,29.85,West,270,2.2,-999.0,21,-99.99,,,0.00,Acu-Link.com,2013-03-19 05:54:00,